65AR weather

Bernard Manor Airport
Earle, Arkansas, United States

Public forecast

Using degrees Fahrenheit for public forecast. Weather courtesy of forecast.io.

METAR (pilot weather report)

Closest report is West Memphis Municipal Airport, 12.6 nm (23.3 km) ESE. Retrieved 2019/06/24 19:53 UTC (58 minutes ago):

KAWM 241953Z AUTO 25008KT 220V290 10SM CLR 28/21 A2988 RMK AO2 SLP112 T02830206

TAF (pilot weather forecast)

Closest forecast is Memphis International Airport, 26.4 nm (48.9 km) ESE. Retrieved 2019/06/24 18:34 UTC (2 hours ago):

TAF KMEM 241732Z 2418/2524 25012G18KT P6SM SCT030 BKN150 FM242300 23006KT P6SM FEW040 BKN250 FM250200 22004KT P6SM FEW035 SCT250 FM251400 20006KT P6SM FEW050 SCT150 SCT250